createdAt,value
2023-02-11T00:01:34.936Z,100977.88
2023-02-11T00:04:06.576Z,100988.41
2023-02-11T00:06:36.464Z,100988.38
2023-02-11T00:09:05.338Z,100979.63
2023-02-11T00:11:33.496Z,100988.41
2023-02-11T00:14:03.532Z,100980.50
2023-02-11T00:16:32.497Z,100960.34
2023-02-11T00:19:01.340Z,100970.88
2023-02-11T00:21:31.186Z,100989.28
2023-02-11T00:24:02.241Z,100980.53
2023-02-11T00:26:32.230Z,100955.97
2023-02-11T00:29:00.934Z,100937.53
2023-02-11T00:31:32.193Z,100928.81
2023-02-11T00:34:00.598Z,100933.16
2023-02-11T00:36:30.990Z,100941.06
2023-02-11T00:39:00.410Z,100936.63
2023-02-11T00:41:28.757Z,100953.31
2023-02-11T00:43:56.954Z,100948.00
2023-02-11T00:46:25.473Z,100951.59
2023-02-11T00:48:57.779Z,100949.84
2023-02-11T00:51:26.808Z,100953.34
2023-02-11T00:53:56.830Z,100955.09
2023-02-11T00:56:24.991Z,100946.25
2023-02-11T00:58:53.458Z,100925.25
2023-02-11T01:01:21.989Z,100939.25
2023-02-11T01:03:50.565Z,100923.50
2023-02-11T01:06:19.430Z,100902.44
2023-02-11T01:08:47.626Z,100944.50
2023-02-11T01:11:19.177Z,100946.28
2023-02-11T01:13:48.944Z,100932.25
2023-02-11T01:16:17.804Z,100940.16
2023-02-11T01:18:46.197Z,100955.09
2023-02-11T01:21:14.926Z,100943.69
2023-02-11T01:23:43.268Z,100944.50
2023-02-11T01:26:11.506Z,100951.50
2023-02-11T01:28:41.202Z,100930.50
2023-02-11T01:31:09.466Z,100930.56
2023-02-11T01:33:37.657Z,100941.06
2023-02-11T01:36:07.335Z,100942.81
2023-02-11T01:38:36.393Z,100927.00
2023-02-11T01:41:06.937Z,100950.69
2023-02-11T01:43:37.738Z,100953.31
2023-02-11T01:46:35.980Z,100937.53
2023-02-11T01:49:08.060Z,100937.56
2023-02-11T01:51:41.115Z,100907.72
2023-02-11T01:54:26.398Z,100962.00
2023-02-11T01:57:15.450Z,100969.97
2023-02-11T01:59:49.702Z,100960.28
2023-02-11T02:02:24.432Z,100941.00
2023-02-11T02:04:57.005Z,100953.31
2023-02-11T02:07:34.450Z,100970.81
2023-02-11T02:10:06.281Z,100963.81
2023-02-11T02:12:34.645Z,100981.34
2023-02-11T02:15:23.465Z,100969.09
2023-02-11T02:17:59.878Z,100970.81
2023-02-11T02:20:54.564Z,100971.69
2023-02-11T02:23:30.018Z,100965.53
2023-02-11T02:26:21.073Z,100939.25
2023-02-11T02:29:12.547Z,100941.00
2023-02-11T02:32:05.124Z,100939.22
2023-02-11T02:34:41.382Z,100956.78
2023-02-11T02:37:14.129Z,100933.16
2023-02-11T02:39:42.331Z,100900.69
2023-02-11T02:42:11.466Z,100938.41
2023-02-11T02:44:39.702Z,100934.91
2023-02-11T02:47:08.018Z,100926.13
2023-02-11T02:49:37.643Z,100900.72
2023-02-11T02:52:17.436Z,100905.94
2023-02-11T02:55:23.567Z,100909.47
2023-02-11T02:58:04.400Z,100921.78
2023-02-11T03:00:44.253Z,100927.91
2023-02-11T03:03:22.959Z,100936.66
2023-02-11T03:05:58.191Z,100955.91
2023-02-11T03:08:32.416Z,100949.81
2023-02-11T03:11:02.977Z,100944.50
2023-02-11T03:13:35.291Z,100930.50
2023-02-11T03:16:09.773Z,100919.13
2023-02-11T03:18:41.265Z,100928.78
2023-02-11T03:21:12.356Z,100939.31
2023-02-11T03:23:43.832Z,100969.03
2023-02-11T03:26:19.936Z,100953.31
2023-02-11T03:28:56.136Z,100920.84
2023-02-11T03:31:32.394Z,100960.31
2023-02-11T03:34:08.894Z,100965.59
2023-02-11T03:36:47.427Z,100944.56
2023-02-11T03:39:20.066Z,100970.84
2023-02-11T03:41:51.243Z,100944.56
2023-02-11T03:44:21.370Z,100954.22
2023-02-11T03:46:52.750Z,100948.97
2023-02-11T03:49:23.875Z,100955.09
2023-02-11T03:51:55.068Z,100956.84
2023-02-11T03:54:29.737Z,100956.81
2023-02-11T03:57:00.880Z,100962.09
2023-02-11T03:59:30.341Z,100961.25
2023-02-11T04:01:59.642Z,100953.25
2023-02-11T04:04:27.901Z,100937.56
2023-02-11T04:06:57.781Z,100942.81
2023-02-11T04:09:25.867Z,100918.22
2023-02-11T04:11:54.178Z,100891.06
2023-02-11T04:14:22.398Z,100891.94
2023-02-11T04:16:50.515Z,100877.97
2023-02-11T04:19:18.868Z,100859.53
2023-02-11T04:21:47.271Z,100835.88
2023-02-11T04:24:16.992Z,100833.25
2023-02-11T04:26:45.219Z,100827.97
2023-02-11T04:29:13.437Z,100858.63
2023-02-11T04:31:41.692Z,100919.94
2023-02-11T04:34:09.869Z,100918.22
2023-02-11T04:36:38.126Z,100926.97
2023-02-11T04:39:06.731Z,100918.22
2023-02-11T04:41:36.443Z,100933.13
2023-02-11T04:44:05.211Z,100926.97
2023-02-11T04:46:33.364Z,100928.72
2023-02-11T04:49:01.626Z,100926.97
2023-02-11T04:51:29.821Z,100893.69
2023-02-11T04:53:57.900Z,100894.59
2023-02-11T04:56:26.119Z,100909.47
2023-02-11T04:58:56.138Z,100936.63
2023-02-11T05:01:24.472Z,100937.50
2023-02-11T05:03:53.016Z,100958.50
2023-02-11T05:06:21.240Z,100992.66
2023-02-11T05:08:49.826Z,101003.19
2023-02-11T05:11:19.909Z,101002.31
2023-02-11T05:13:48.297Z,100980.47
2023-02-11T05:16:18.497Z,100993.63
2023-02-11T05:18:47.419Z,101009.41
2023-02-11T05:21:17.906Z,101009.41
2023-02-11T05:23:46.701Z,101018.16
2023-02-11T05:26:15.498Z,101026.94
2023-02-11T05:28:44.007Z,101035.66
2023-02-11T05:31:14.824Z,101033.97
2023-02-11T05:33:44.915Z,101032.19
2023-02-11T05:36:14.509Z,101039.19
2023-02-11T05:38:43.467Z,101046.97
2023-02-11T05:41:12.700Z,101032.16
2023-02-11T05:43:40.817Z,101050.50
2023-02-11T05:46:10.475Z,101061.88
2023-02-11T05:48:39.043Z,101046.19
2023-02-11T05:51:08.959Z,101062.03
2023-02-11T05:53:37.091Z,101058.47
2023-02-11T05:56:05.652Z,101061.91
2023-02-11T05:58:34.251Z,101069.03
2023-02-11T06:01:02.266Z,101067.28
2023-02-11T06:03:30.607Z,101072.47
2023-02-11T06:05:58.872Z,101060.25
2023-02-11T06:08:28.626Z,101058.41
2023-02-11T06:11:01.640Z,101070.75
2023-02-11T06:13:31.325Z,101071.69
2023-02-11T06:16:00.851Z,101077.81
2023-02-11T06:18:29.529Z,101091.78
2023-02-11T06:20:58.005Z,101089.16
2023-02-11T06:23:29.120Z,101083.06
2023-02-11T06:26:03.452Z,101102.31
2023-02-11T06:28:32.660Z,101105.84
2023-02-11T06:31:06.625Z,101104.09
2023-02-11T06:33:35.512Z,101098.69
2023-02-11T06:36:04.918Z,101107.47
2023-02-11T06:38:32.900Z,101104.84
2023-02-11T06:41:02.532Z,101116.31
2023-02-11T06:43:33.046Z,101131.13
2023-02-11T06:46:01.197Z,101110.88
2023-02-11T06:48:29.511Z,101125.09
2023-02-11T06:50:57.627Z,101126.91
2023-02-11T06:53:25.702Z,101146.16
2023-02-11T06:55:53.876Z,101160.03
2023-02-11T06:58:23.526Z,101160.03
2023-02-11T07:00:52.367Z,101162.75
2023-02-11T07:03:20.734Z,101181.03
2023-02-11T07:05:49.311Z,101186.31
2023-02-11T07:08:17.805Z,101189.84
2023-02-11T07:10:46.261Z,101188.03
2023-02-11T07:13:14.605Z,101202.16
2023-02-11T07:15:48.076Z,101210.06
2023-02-11T07:18:16.391Z,101189.84
2023-02-11T07:20:44.830Z,101217.94
2023-02-11T07:23:13.228Z,101215.25
2023-02-11T07:25:42.307Z,101227.59
2023-02-11T07:28:10.445Z,101232.75
2023-02-11T07:30:38.643Z,101241.53
2023-02-11T07:33:08.351Z,101253.88
2023-02-11T07:35:36.502Z,101265.31
2023-02-11T07:38:05.034Z,101275.00
2023-02-11T07:40:33.388Z,101254.84
2023-02-11T07:43:02.133Z,101262.66
2023-02-11T07:45:30.841Z,101288.06
2023-02-11T07:47:59.169Z,101295.22
2023-02-11T07:50:28.725Z,101289.91
2023-02-11T07:52:57.797Z,101304.84
2023-02-11T07:55:26.363Z,101309.25
2023-02-11T07:57:54.558Z,101321.53
2023-02-11T08:00:23.810Z,101337.38
2023-02-11T08:02:52.025Z,101345.28
2023-02-11T08:05:20.984Z,101344.50
2023-02-11T08:07:52.514Z,101351.41
2023-02-11T08:10:21.632Z,101361.13
2023-02-11T08:12:50.076Z,101360.22
2023-02-11T08:15:18.646Z,101376.97
2023-02-11T08:17:46.840Z,101383.16
2023-02-11T08:20:14.993Z,101405.94
2023-02-11T08:23:01.329Z,101407.75
2023-02-11T08:25:30.945Z,101407.72
2023-02-11T08:28:03.369Z,101414.72
2023-02-11T08:30:38.326Z,101414.75
2023-02-11T08:33:06.586Z,101427.09
2023-02-11T08:35:37.262Z,101434.22
2023-02-11T08:38:05.320Z,101435.81
2023-02-11T08:40:35.044Z,101454.16
2023-02-11T08:43:07.984Z,101423.31
2023-02-11T08:45:36.488Z,101474.38
2023-02-11T08:48:08.583Z,101479.63
2023-02-11T08:50:38.832Z,101479.66
2023-02-11T08:53:07.038Z,101488.44
2023-02-11T08:55:36.606Z,101451.44
2023-02-11T08:58:04.904Z,101470.78
2023-02-11T09:00:33.192Z,101486.63
2023-02-11T09:03:01.563Z,101495.34
2023-02-11T09:05:29.773Z,101507.47
2023-02-11T09:07:57.921Z,101518.09
2023-02-11T09:10:26.135Z,101519.06
2023-02-11T09:12:56.000Z,101523.34
2023-02-11T09:15:24.210Z,101531.28
2023-02-11T09:17:52.313Z,101524.16
2023-02-11T09:20:21.733Z,101565.50
2023-02-11T09:22:50.534Z,101568.88
2023-02-11T09:25:19.283Z,101581.19
2023-02-11T09:27:47.885Z,101580.28
2023-02-11T09:30:18.540Z,101588.06
2023-02-11T09:32:46.744Z,101591.56
2023-02-11T09:35:17.746Z,101591.66
2023-02-11T09:37:45.859Z,101604.13
2023-02-11T09:40:15.581Z,101597.00
2023-02-11T09:42:53.129Z,101607.41
2023-02-11T09:45:27.454Z,101608.34
2023-02-11T09:47:59.250Z,101613.66
2023-02-11T09:50:33.883Z,101625.16
2023-02-11T09:53:07.313Z,101627.78
2023-02-11T09:55:39.512Z,101639.22
2023-02-11T09:58:14.460Z,101644.22
2023-02-11T10:00:48.872Z,101657.66
2023-02-11T10:03:53.311Z,101644.31
2023-02-11T10:06:44.383Z,101664.72
2023-02-11T10:09:28.824Z,101672.50
2023-02-11T10:12:05.542Z,101681.50
2023-02-11T10:14:59.672Z,101698.28
2023-02-11T10:17:41.475Z,101694.22
2023-02-11T10:20:22.933Z,101713.63
2023-02-11T10:22:54.737Z,101719.03
2023-02-11T10:25:27.286Z,101731.13
2023-02-11T10:27:58.298Z,101729.16
2023-02-11T10:30:32.120Z,101735.97
2023-02-11T10:33:08.109Z,101730.72
2023-02-11T10:35:36.618Z,101738.53
2023-02-11T10:38:05.018Z,101715.53
2023-02-11T10:40:33.930Z,101755.34
2023-02-11T10:45:58.692Z,101762.19
2023-02-11T10:48:44.617Z,101760.50
2023-02-11T10:51:20.368Z,101772.75
2023-02-11T10:53:50.082Z,101752.31
2023-02-11T10:56:25.164Z,101763.69
2023-02-11T10:59:00.286Z,101792.84
2023-02-11T11:01:47.940Z,101806.22
2023-02-11T11:04:45.635Z,101798.13
2023-02-11T11:07:21.219Z,101802.69
2023-02-11T11:09:52.947Z,101812.38
2023-02-11T11:12:30.428Z,101813.31
2023-02-11T11:15:01.552Z,101812.50
2023-02-11T11:17:30.175Z,101818.53
2023-02-11T11:20:21.107Z,101821.13
2023-02-11T11:22:50.534Z,101825.53
2023-02-11T11:25:28.200Z,101826.19
2023-02-11T11:27:59.247Z,101836.81
2023-02-11T11:30:33.346Z,101839.66
2023-02-11T11:33:02.927Z,101846.56
2023-02-11T11:35:34.270Z,101857.31
2023-02-11T11:38:05.611Z,101862.84
2023-02-11T11:40:35.604Z,101880.50
2023-02-11T11:43:08.638Z,101883.22
2023-02-11T11:45:37.161Z,101889.44
2023-02-11T11:48:14.484Z,101894.63
2023-02-11T11:50:49.306Z,101901.59
2023-02-11T11:53:25.388Z,101903.63
2023-02-11T11:56:02.053Z,101903.63
2023-02-11T11:58:32.267Z,101914.16
2023-02-11T12:01:10.965Z,101915.13
2023-02-11T12:04:13.110Z,101917.84
2023-02-11T12:06:55.277Z,101932.09
2023-02-11T12:09:32.174Z,101948.06
2023-02-11T12:12:17.578Z,101944.28
2023-02-11T12:14:58.093Z,101951.34
2023-02-11T12:17:50.024Z,101952.13
2023-02-11T12:20:26.697Z,101947.81
2023-02-11T12:23:23.195Z,101960.03
2023-02-11T12:26:01.680Z,101968.06
2023-02-11T12:28:39.906Z,101980.16
2023-02-11T12:31:27.179Z,101977.50
2023-02-11T12:34:25.345Z,101998.78
2023-02-11T12:37:03.094Z,101999.69
2023-02-11T12:39:43.625Z,102002.38
2023-02-11T12:42:51.734Z,102004.16
2023-02-11T12:45:29.613Z,102006.00
2023-02-11T12:48:09.406Z,102017.06
2023-02-11T12:50:47.620Z,102015.28
2023-02-11T12:53:32.005Z,102018.94
2023-02-11T12:56:07.810Z,102023.31
2023-02-11T12:58:45.398Z,102033.84
2023-02-11T13:01:22.569Z,102043.19
2023-02-11T13:03:55.939Z,102041.63
2023-02-11T13:06:32.769Z,102044.19
2023-02-11T13:09:03.416Z,102020.63
2023-02-11T13:11:40.064Z,102021.34
2023-02-11T13:14:15.698Z,102045.97
2023-02-11T13:16:46.683Z,102045.88
2023-02-11T13:19:25.152Z,102042.41
2023-02-11T13:22:03.713Z,102050.41
2023-02-11T13:24:41.031Z,102062.81
2023-02-11T13:27:19.976Z,102071.53
2023-02-11T13:30:18.708Z,102075.91
2023-02-11T13:33:06.872Z,102083.81
2023-02-11T13:35:37.068Z,102046.81
2023-02-11T13:38:07.842Z,102088.25
2023-02-11T13:40:39.325Z,102093.41
2023-02-11T13:43:22.764Z,102096.00
2023-02-11T13:45:52.952Z,102084.44
2023-02-11T13:48:26.303Z,102113.56
2023-02-11T13:50:58.202Z,102124.16
2023-02-11T13:53:28.190Z,102118.03
2023-02-11T13:56:09.519Z,102121.91
2023-02-11T13:58:49.093Z,102124.59
2023-02-11T14:01:41.849Z,102139.28
2023-02-11T14:04:41.585Z,102137.44
2023-02-11T14:07:48.092Z,102142.56
2023-02-11T14:10:51.553Z,102135.41
2023-02-11T14:13:25.389Z,102139.19
2023-02-11T14:16:08.526Z,102146.25
2023-02-11T14:19:02.019Z,102154.94
2023-02-11T14:21:39.637Z,102116.09
2023-02-11T14:24:56.754Z,102156.06
2023-02-11T14:27:33.005Z,102158.75
2023-02-11T14:30:21.129Z,102155.22
2023-02-11T14:33:13.132Z,102170.88
2023-02-11T14:35:52.772Z,102165.53
2023-02-11T14:38:29.994Z,102170.75
2023-02-11T14:41:07.841Z,102169.84
2023-02-11T14:43:39.980Z,102177.78
2023-02-11T14:46:08.956Z,102178.69
2023-02-11T14:48:44.491Z,102187.44
2023-02-11T14:51:17.646Z,102191.91
2023-02-11T14:53:50.428Z,102196.38
2023-02-11T14:56:22.119Z,102209.63
2023-02-11T14:58:52.997Z,102211.44
2023-02-11T15:01:28.972Z,102215.84
2023-02-11T15:04:00.363Z,102216.78
2023-02-11T15:06:32.868Z,102214.91
2023-02-11T15:09:05.650Z,102220.19
2023-02-11T15:11:39.413Z,102209.47
2023-02-11T15:14:10.601Z,102222.69
2023-02-11T15:16:43.564Z,102235.78
2023-02-11T15:19:23.401Z,102242.56
2023-02-11T15:21:53.605Z,102246.88
2023-02-11T15:24:27.744Z,102254.91
2023-02-11T15:27:01.264Z,102261.94
2023-02-11T15:29:36.728Z,102271.00
2023-02-11T15:32:14.781Z,102277.94
2023-02-11T15:34:45.977Z,102277.72
2023-02-11T15:37:18.828Z,102281.28
2023-02-11T15:39:47.080Z,102295.34
2023-02-11T15:42:26.817Z,102313.69
2023-02-11T15:45:23.893Z,102319.88
2023-02-11T15:47:55.152Z,102327.53
2023-02-11T15:50:27.272Z,102320.31
2023-02-11T15:52:57.986Z,102320.19
2023-02-11T15:55:28.128Z,102312.41
2023-02-11T15:57:59.434Z,102324.63
2023-02-11T16:00:38.665Z,102335.91
2023-02-11T16:03:07.110Z,102330.94
2023-02-11T16:05:38.852Z,102342.38
2023-02-11T16:08:22.398Z,102341.78
2023-02-11T16:10:58.850Z,102354.22
2023-02-11T16:13:30.856Z,102352.38
2023-02-11T16:16:04.664Z,102341.09
2023-02-11T16:18:52.045Z,102366.63
2023-02-11T16:21:32.854Z,102385.75
2023-02-11T16:24:01.813Z,102369.78
2023-02-11T16:26:33.978Z,102380.47
2023-02-11T16:29:08.052Z,102385.69
2023-02-11T16:31:40.017Z,102390.03
2023-02-11T16:34:16.008Z,102384.97
2023-02-11T16:36:45.940Z,102389.38
2023-02-11T16:39:14.415Z,102392.75
2023-02-11T16:41:42.565Z,102410.19
2023-02-11T16:44:10.792Z,102403.03
2023-02-11T16:46:39.300Z,102417.25
2023-02-11T16:49:12.282Z,102421.78
2023-02-11T16:51:42.580Z,102428.88
2023-02-11T16:54:16.349Z,102441.94
2023-02-11T16:56:53.274Z,102434.56
2023-02-11T16:59:21.719Z,102441.13
2023-02-11T17:01:51.248Z,102447.75
2023-02-11T17:04:25.094Z,102445.84
2023-02-11T17:06:53.416Z,102454.34
2023-02-11T17:09:27.107Z,102460.16
2023-02-11T17:11:56.480Z,102465.22
2023-02-11T17:14:24.671Z,102476.41
2023-02-11T17:16:53.149Z,102479.75
2023-02-11T17:19:22.416Z,102483.06
2023-02-11T17:21:52.629Z,102489.56
2023-02-11T17:24:23.843Z,102490.16
2023-02-11T17:26:52.858Z,102498.81
2023-02-11T17:29:23.798Z,102492.88
2023-02-11T17:31:53.099Z,102491.44
2023-02-11T17:34:22.755Z,102490.75
2023-02-11T17:36:51.866Z,102494.50
2023-02-11T17:39:21.385Z,102491.53
2023-02-11T17:41:51.065Z,102496.53
2023-02-11T17:44:19.861Z,102488.75
2023-02-11T17:46:48.211Z,102504.22
2023-02-11T17:49:16.415Z,102498.81
2023-02-11T17:51:44.881Z,102459.38
2023-02-11T17:54:15.398Z,102500.13
2023-02-11T17:56:44.297Z,102505.47
2023-02-11T17:59:14.710Z,102495.16
2023-02-11T18:01:44.286Z,102495.16
2023-02-11T18:04:15.832Z,102502.38
2023-02-11T18:06:44.688Z,102511.53
2023-02-11T18:09:14.425Z,102522.03
2023-02-11T18:11:43.387Z,102528.91
2023-02-11T18:14:13.634Z,102526.78
2023-02-11T18:16:43.800Z,102527.97
2023-02-11T18:19:12.837Z,102531.38
2023-02-11T18:21:41.820Z,102529.41
2023-02-11T18:24:14.363Z,102521.81
2023-02-11T18:26:43.115Z,102527.13
2023-02-11T18:29:11.372Z,102520.78
2023-02-11T18:31:41.125Z,102530.41
2023-02-11T18:34:13.315Z,102534.47
2023-02-11T18:36:41.624Z,102541.97
2023-02-11T18:39:09.795Z,102542.44
2023-02-11T18:41:40.095Z,102545.53
2023-02-11T18:44:08.386Z,102548.34
2023-02-11T18:46:36.657Z,102551.50
2023-02-11T18:49:06.218Z,102558.34
2023-02-11T18:51:34.973Z,102551.63
2023-02-11T18:54:03.284Z,102554.34
2023-02-11T18:56:31.440Z,102561.81
2023-02-11T18:59:01.521Z,102543.50
2023-02-11T19:01:31.673Z,102566.06
2023-02-11T19:04:03.093Z,102570.28
2023-02-11T19:06:37.850Z,102565.75
2023-02-11T19:09:10.086Z,102575.50
2023-02-11T19:11:50.514Z,102567.78
2023-02-11T19:14:22.146Z,102571.19
2023-02-11T19:16:51.795Z,102564.56
2023-02-11T19:19:22.312Z,102573.59
2023-02-11T19:21:53.856Z,102573.69
2023-02-11T19:24:23.567Z,102582.00
2023-02-11T19:26:53.521Z,102578.44
2023-02-11T19:29:22.323Z,102578.41
2023-02-11T19:31:50.602Z,102595.63
2023-02-11T19:34:20.704Z,102588.63
2023-02-11T19:36:49.943Z,102598.22
2023-02-11T19:39:19.652Z,102611.38
2023-02-11T19:41:47.918Z,102621.97
2023-02-11T19:44:16.981Z,102620.03
2023-02-11T19:46:52.896Z,102629.31
2023-02-11T19:49:26.035Z,102625.91
2023-02-11T19:51:55.618Z,102627.63
2023-02-11T19:54:27.447Z,102628.78
2023-02-11T19:56:55.828Z,102628.69
2023-02-11T19:59:26.298Z,102599.06
2023-02-11T20:01:54.617Z,102637.06
2023-02-11T20:04:25.187Z,102638.22
2023-02-11T20:06:56.302Z,102637.41
2023-02-11T20:09:26.674Z,102631.56
2023-02-11T20:11:55.080Z,102645.38
2023-02-11T20:14:26.154Z,102646.97
2023-02-11T20:16:55.782Z,102643.63
2023-02-11T20:19:24.449Z,102641.72
2023-02-11T20:21:55.995Z,102620.53
2023-02-11T20:24:28.032Z,102643.63
2023-02-11T20:26:57.538Z,102618.66
2023-02-11T20:29:26.680Z,102639.72
2023-02-11T20:31:58.638Z,102652.72
2023-02-11T20:34:27.124Z,102640.69
2023-02-11T20:36:57.293Z,102657.63
2023-02-11T20:39:27.284Z,102645.94
2023-02-11T20:41:56.666Z,102663.91
2023-02-11T20:44:26.501Z,102662.16
2023-02-11T20:46:54.976Z,102674.66
2023-02-11T20:49:27.207Z,102688.03
2023-02-11T20:51:56.955Z,102680.44
2023-02-11T20:54:27.553Z,102682.94
2023-02-11T20:57:02.577Z,102684.34
2023-02-11T20:59:32.095Z,102683.44
2023-02-11T21:02:00.303Z,102689.69
2023-02-11T21:04:31.433Z,102692.50
2023-02-11T21:07:01.929Z,102692.25
2023-02-11T21:09:33.567Z,102678.97
2023-02-11T21:12:04.359Z,102683.44
2023-02-11T21:14:33.545Z,102685.00
2023-02-11T21:17:02.173Z,102683.22
2023-02-11T21:19:30.377Z,102679.66
2023-02-11T21:22:00.699Z,102677.63
2023-02-11T21:24:30.984Z,102683.69
2023-02-11T21:27:01.097Z,102684.56
2023-02-11T21:29:29.296Z,102671.97
2023-02-11T21:31:57.689Z,102693.22
2023-02-11T21:34:26.109Z,102695.06
2023-02-11T21:36:54.493Z,102689.78
2023-02-11T21:39:22.954Z,102695.25
2023-02-11T21:41:51.671Z,102693.34
2023-02-11T21:44:21.267Z,102702.16
2023-02-11T21:46:49.908Z,102700.41
2023-02-11T21:49:19.808Z,102708.81
2023-02-11T21:51:48.683Z,102721.34
2023-02-11T21:54:18.885Z,102721.56
2023-02-11T21:56:49.887Z,102715.56
2023-02-11T21:59:19.041Z,102725.13
2023-02-11T22:01:48.788Z,102726.81
2023-02-11T22:04:17.195Z,102721.56
2023-02-11T22:06:45.392Z,102730.38
2023-02-11T22:09:13.655Z,102728.81
2023-02-11T22:11:41.770Z,102730.03
2023-02-11T22:14:10.011Z,102730.69
2023-02-11T22:16:38.849Z,102725.88
2023-02-11T22:19:08.502Z,102733.75
2023-02-11T22:21:37.039Z,102739.56
2023-02-11T22:24:06.235Z,102753.75
2023-02-11T22:26:34.676Z,102741.59
2023-02-11T22:29:03.143Z,102754.09
2023-02-11T22:31:34.144Z,102738.03
2023-02-11T22:34:03.404Z,102761.00
2023-02-11T22:36:35.037Z,102757.44
2023-02-11T22:39:05.236Z,102765.91
2023-02-11T22:41:33.578Z,102765.91
2023-02-11T22:44:02.340Z,102761.53
2023-02-11T22:46:30.571Z,102760.88
2023-02-11T22:48:58.859Z,102755.66
2023-02-11T22:51:29.435Z,102749.75
2023-02-11T22:54:00.715Z,102720.28
2023-02-11T22:56:31.013Z,102749.97
2023-02-11T22:59:00.265Z,102756.00
2023-02-11T23:01:28.717Z,102757.78
2023-02-11T23:03:57.373Z,102751.34
2023-02-11T23:06:27.020Z,102746.84
2023-02-11T23:08:56.139Z,102745.03
2023-02-11T23:11:28.306Z,102752.56
2023-02-11T23:13:57.488Z,102743.88
2023-02-11T23:16:27.764Z,102745.28
2023-02-11T23:18:56.572Z,102752.06
2023-02-11T23:21:30.767Z,102752.72
2023-02-11T23:24:01.248Z,102757.06
2023-02-11T23:26:31.059Z,102753.38
2023-02-11T23:29:00.118Z,102752.44
2023-02-11T23:31:31.307Z,102750.88
2023-02-11T23:33:59.561Z,102741.16
2023-02-11T23:36:28.120Z,102748.34
2023-02-11T23:38:56.646Z,102747.56
2023-02-11T23:41:25.399Z,102743.28
2023-02-11T23:43:56.957Z,102753.75
2023-02-11T23:46:26.428Z,102753.97
2023-02-11T23:48:55.084Z,102754.44
2023-02-11T23:51:24.553Z,102757.56
2023-02-11T23:53:56.290Z,102766.97
2023-02-11T23:56:28.304Z,102771.06
2023-02-11T23:58:59.426Z,102769.94
